Time;durP1;ratioP1;P1;durP2;ratioP2;P2;SDS_P1;SDS_P2;PMS_P1;PMS_P2;Temp;Humidity;BMP_temperature;BMP_pressure;BME280_temperature;BME280_humidity;BME280_pressure;Samples;Min_cycle;Max_cycle;Signal;HPM_P1;HPM_P2
2023/01/14 08:31:26;;;;;;;;;;;;;;;7.21;64.58;100006.03;1083881;54;19934;-84
2023/01/14 08:32:33;;;;;;;;;;;;;;;7.24;64.54;99991.63;1077287;54;19954;-85
2023/01/14 09:30:10;;;;;;;;;;;;;;;8.04;64.49;99934.44;1088379;54;19955;-83
2023/01/14 09:31:20;;;;;;;;;;;;;;;8.07;64.32;99933.31;1088479;54;19939;-82
2023/01/14 09:32:24;;;;;;;;;;;;;;;8.05;64.63;99925.47;1088652;54;19935;-82
2023/01/14 09:33:28;;;;;;;;;;;;;;;8.05;64.67;99932.59;1088604;54;19950;-82
2023/01/14 09:34:30;;;;;;;;;;;;;;;8.05;64.45;99933.47;1088553;54;19935;-82
2023/01/14 09:35:35;;;;;;;;;;;;;;;8.00;64.82;99933.00;1088684;54;19934;-83
2023/01/14 09:36:38;;;;;;;;;;;;;;;7.99;65.04;99939.28;1089823;46;19943;-83
2023/01/14 09:37:46;;;;;;;;;;;;;;;7.99;65.24;99933.13;1088702;54;19934;-84
2023/01/14 09:38:48;;;;;;;;;;;;;;;8.04;65.14;99931.78;1090636;46;19927;-83
2023/01/14 09:39:52;;;;;;;;;;;;;;;7.94;65.17;99931.69;1089756;46;19968;-83
2023/01/14 09:40:54;;;;;;;;;;;;;;;7.96;65.43;99924.44;1088808;54;19943;-83
2023/01/14 09:42:08;;;;;;;;;;;;;;;8.04;65.09;99925.59;1088624;54;19955;-80
2023/01/14 09:43:15;;;;;;;;;;;;;;;8.06;65.21;99924.50;1088545;54;19995;-81
2023/01/14 09:44:21;;;;;;;;;;;;;;;8.20;64.97;99925.13;1088580;54;19934;-80
2023/01/14 09:45:24;;;;;;;;;;;;;;;8.17;65.11;99931.56;1088614;54;19934;-82
2023/01/14 09:46:28;;;;;;;;;;;;;;;8.09;65.26;99934.88;1088624;54;20053;-82
2023/01/14 09:47:36;;;;;;;;;;;;;;;8.17;64.92;99928.06;1088661;54;19950;-81
2023/01/14 09:48:37;;;;;;;;;;;;;;;8.26;64.92;99930.78;1088520;54;19982;-82
2023/01/14 09:59:52;;;;;;;;;;;;;;;8.50;64.77;99913.63;1088406;54;19999;-81
2023/01/14 10:01:00;;;;;;;;;;;;;;;8.52;64.70;99911.69;1088528;54;19957;-82
2023/01/14 10:02:08;;;;;;;;;;;;;;;8.52;64.58;99911.69;1088508;54;19934;-82
2023/01/14 10:03:19;;;;;;;;;;;;;;;8.43;64.93;99912.47;1088575;54;19942;-82
2023/01/14 10:04:35;;;;;;;;;;;;;;;8.38;65.11;99909.38;1088547;54;19962;-82
2023/01/14 10:05:39;;;;;;;;;;;;;;;8.47;64.89;99911.28;1090461;46;19942;-82
2023/01/14 10:06:45;;;;;;;;;;;;;;;8.40;65.30;99902.09;1095494;46;20028;-83
2023/01/14 10:07:46;;;;;;;;;;;;;;;8.38;65.46;99906.72;1088702;54;19935;-83
2023/01/14 10:08:56;;;;;;;;;;;;;;;8.43;65.23;99897.34;1090605;46;19978;-83
2023/01/14 10:09:59;;;;;;;;;;;;;;;8.39;65.29;99903.06;1094235;46;19930;-82
2023/01/14 10:16:01;;;;;;;;;;;;;;;8.54;65.50;99888.44;1087745;54;19938;-82
2023/01/14 10:49:18;;;;;;;;;;;;;;;9.25;65.17;99789.72;1086101;54;20009;-78
2023/01/14 10:50:21;;;;;;;;;;;;;;;9.38;64.48;99787.56;1086957;54;19950;-78
2023/01/14 10:51:33;;;;;;;;;;;;;;;9.42;64.41;99794.31;1086960;54;19970;-77
2023/01/14 10:52:37;;;;;;;;;;;;;;;9.43;64.54;99789.81;1086736;54;20057;-78
2023/01/14 10:53:42;;;;;;;;;;;;;;;9.47;64.50;99792.06;1086718;54;19947;-80
2023/01/14 10:54:54;;;;;;;;;;;;;;;9.38;64.78;99782.25;1086652;54;19939;-79
2023/01/14 10:56:00;;;;;;;;;;;;;;;9.48;64.59;99780.41;1086582;54;19988;-78
2023/01/14 10:57:12;;;;;;;;;;;;;;;9.52;64.19;99779.13;1087107;54;19973;-79
2023/01/14 10:58:18;;;;;;;;;;;;;;;9.52;64.27;99770.28;1086564;46;19992;-78
2023/01/14 10:59:26;;;;;;;;;;;;;;;9.51;64.61;99761.44;1086770;54;19958;-78
2023/01/14 11:00:35;;;;;;;;;;;;;;;9.59;64.45;99757.19;1086842;54;19963;-80
2023/01/14 11:01:40;;;;;;;;;;;;;;;9.66;64.09;99759.16;1086910;54;19973;-80
2023/01/14 11:02:47;;;;;;;;;;;;;;;9.68;64.35;99750.97;1086919;54;19942;-78
2023/01/14 11:03:48;;;;;;;;;;;;;;;9.70;64.04;99737.47;1086479;54;19947;-77
2023/01/14 11:04:55;;;;;;;;;;;;;;;9.76;63.90;99742.25;1087479;54;19950;-79
2023/01/14 11:05:57;;;;;;;;;;;;;;;9.76;64.02;99742.25;1087122;54;20029;-77
2023/01/14 11:07:08;;;;;;;;;;;;;;;9.80;63.87;99732.94;1086851;54;19957;-82
2023/01/14 11:08:19;;;;;;;;;;;;;;;9.69;64.18;99736.66;1087105;54;19946;-78
2023/01/14 11:09:25;;;;;;;;;;;;;;;9.75;64.14;99727.22;1086463;54;19953;-78
2023/01/14 11:10:30;;;;;;;;;;;;;;;9.79;64.02;99726.78;1086468;54;19946;-79
2023/01/14 11:11:37;;;;;;;;;;;;;;;9.80;63.71;99723.13;1086829;54;20471;-78
2023/01/14 11:12:40;;;;;;;;;;;;;;;9.78;63.88;99727.75;1087051;54;20030;-81
2023/01/14 11:13:45;;;;;;;;;;;;;;;9.73;63.76;99726.53;1087091;54;19955;-79
2023/01/14 11:14:46;;;;;;;;;;;;;;;9.80;64.13;99719.59;1087279;39;20255;-81
2023/01/14 11:15:49;;;;;;;;;;;;;;;9.74;64.06;99725.53;1086620;54;20420;-81
2023/01/14 11:16:51;;;;;;;;;;;;;;;9.73;64.02;99714.00;1086668;54;20464;-80
2023/01/14 11:17:55;;;;;;;;;;;;;;;9.76;63.96;99713.72;1086539;47;20445;-80
2023/01/14 11:18:57;;;;;;;;;;;;;;;9.75;64.12;99717.38;1086304;54;19978;-78
2023/01/14 11:20:16;;;;;;;;;;;;;;;9.77;64.09;99711.91;1086541;54;19951;-81
2023/01/14 11:21:23;;;;;;;;;;;;;;;9.74;64.07;99713.00;1086480;54;19946;-81
2023/01/14 11:22:24;;;;;;;;;;;;;;;9.71;64.12;99710.66;1086849;54;20025;-80
2023/01/14 11:23:30;;;;;;;;;;;;;;;9.80;63.79;99712.44;1086679;54;19953;-80
2023/01/14 11:24:38;;;;;;;;;;;;;;;9.74;63.92;99709.53;1086490;54;19959;-81
2023/01/14 11:25:41;;;;;;;;;;;;;;;9.74;64.17;99709.53;1086459;54;19958;-81
2023/01/14 11:26:45;;;;;;;;;;;;;;;9.77;63.67;99710.06;1086509;54;20425;-80
2023/01/14 11:27:47;;;;;;;;;;;;;;;9.79;63.78;99710.75;1086030;54;19962;-81
2023/01/14 11:28:52;;;;;;;;;;;;;;;9.82;63.58;99699.75;1086247;54;19945;-79
2023/01/14 11:29:56;;;;;;;;;;;;;;;9.76;64.06;99691.53;1085824;54;19950;-79
2023/01/14 11:30:58;;;;;;;;;;;;;;;9.77;64.15;99696.72;1086170;54;19989;-78
2023/01/14 11:32:07;;;;;;;;;;;;;;;9.86;63.54;99694.13;1086252;47;20012;-77
2023/01/14 11:33:16;;;;;;;;;;;;;;;9.83;63.68;99690.78;1086765;54;19962;-78
2023/01/14 11:34:29;;;;;;;;;;;;;;;9.88;63.42;99692.16;1087068;54;19969;-79
2023/01/14 11:35:32;;;;;;;;;;;;;;;9.86;63.40;99680.78;1087163;54;19938;-79
2023/01/14 11:36:39;;;;;;;;;;;;;;;9.88;63.79;99682.31;1087236;54;19960;-79
2023/01/14 11:37:42;;;;;;;;;;;;;;;9.90;63.43;99677.66;1087114;54;19958;-80
2023/01/14 11:38:47;;;;;;;;;;;;;;;9.89;63.73;99681.31;1089265;39;20140;-80
2023/01/14 11:39:52;;;;;;;;;;;;;;;9.90;63.45;99679.50;1087187;54;20468;-80
2023/01/14 11:42:32;;;;;;;;;;;;;;;9.83;63.60;99672.09;1087095;54;19946;-80
2023/01/14 11:43:33;;;;;;;;;;;;;;;9.93;63.40;99664.03;1087524;54;19970;-80
2023/01/14 11:44:38;;;;;;;;;;;;;;;9.96;63.58;99662.88;1088022;54;20468;-80
2023/01/14 11:45:39;;;;;;;;;;;;;;;9.94;63.34;99660.38;1087695;54;19954;-80
2023/01/14 11:46:45;;;;;;;;;;;;;;;9.92;63.69;99666.88;1087741;54;20554;-80
2023/01/14 11:47:47;;;;;;;;;;;;;;;10.00;62.91;99656.25;1087408;54;19942;-80
2023/01/14 11:49:01;;;;;;;;;;;;;;;10.04;63.07;99649.63;1087583;54;20629;-79
2023/01/14 11:50:13;;;;;;;;;;;;;;;10.05;62.97;99653.16;1086493;54;19954;-81
2023/01/14 11:51:20;;;;;;;;;;;;;;;10.14;62.91;99645.06;1087312;54;19955;-80
2023/01/14 11:52:27;;;;;;;;;;;;;;;10.12;62.94;99644.34;1087496;54;19938;-80
2023/01/14 11:53:41;;;;;;;;;;;;;;;10.13;62.57;99643.38;1087096;54;19946;-79
2023/01/14 11:54:47;;;;;;;;;;;;;;;10.05;62.98;99635.28;1087321;54;19974;-80
2023/01/14 11:55:49;;;;;;;;;;;;;;;10.13;62.61;99632.69;1086921;54;19942;-80
2023/01/14 11:56:53;;;;;;;;;;;;;;;10.14;62.13;99639.72;1087010;54;19951;-81
2023/01/14 11:57:57;;;;;;;;;;;;;;;10.13;62.58;99643.38;1086979;54;19951;-78
2023/01/14 11:59:03;;;;;;;;;;;;;;;10.14;62.38;99633.53;1087545;54;19950;-78
2023/01/14 12:00:05;;;;;;;;;;;;;;;10.17;62.51;99632.38;1087776;54;19970;-78
2023/01/14 12:01:19;;;;;;;;;;;;;;;10.17;62.34;99635.06;1087595;54;19945;-81
2023/01/14 12:02:23;;;;;;;;;;;;;;;10.22;62.27;99624.75;1087800;54;19961;-81
2023/01/14 12:03:34;;;;;;;;;;;;;;;10.21;62.28;99623.06;1087717;54;19943;-80
2023/01/14 12:04:41;;;;;;;;;;;;;;;10.18;61.97;99618.88;1087773;54;19947;-80
2023/01/14 12:05:43;;;;;;;;;;;;;;;10.19;62.43;99599.19;1087803;54;19943;-80
2023/01/14 12:06:48;;;;;;;;;;;;;;;10.14;62.31;99613.00;1087959;54;20635;-79
2023/01/14 12:07:54;;;;;;;;;;;;;;;10.10;62.74;99610.78;1087667;54;19949;-78
2023/01/14 12:09:02;;;;;;;;;;;;;;;10.17;62.14;99595.00;1087500;54;19942;-80
2023/01/14 12:10:09;;;;;;;;;;;;;;;10.15;62.09;99590.63;1087586;54;19943;-80
2023/01/14 12:11:15;;;;;;;;;;;;;;;10.19;61.92;99598.34;1087418;54;19950;-81
2023/01/14 12:12:21;;;;;;;;;;;;;;;10.19;62.01;99593.00;1087516;54;19946;-80
2023/01/14 12:17:25;;;;;;;;;;;;;;;10.23;61.71;99573.84;1087654;54;19974;-81
2023/01/14 12:18:30;;;;;;;;;;;;;;;10.30;61.66;99569.56;1087007;54;19923;-80
2023/01/14 12:19:36;;;;;;;;;;;;;;;10.32;61.63;99556.03;1089198;39;20373;-80
2023/01/14 12:20:40;;;;;;;;;;;;;;;10.29;61.78;99561.72;1087600;54;20535;-80
2023/01/14 12:21:44;;;;;;;;;;;;;;;10.28;61.65;99560.84;1087766;54;19981;-80
2023/01/14 12:22:51;;;;;;;;;;;;;;;10.35;61.49;99550.41;1087641;54;19973;-80
2023/01/14 12:23:57;;;;;;;;;;;;;;;10.39;61.40;99546.44;1087721;54;19974;-81
2023/01/14 12:25:06;;;;;;;;;;;;;;;10.38;61.39;99536.75;1087703;54;20726;-81
2023/01/14 12:26:13;;;;;;;;;;;;;;;10.31;61.73;99532.97;1087567;54;19969;-80
2023/01/14 12:27:41;;;;;;;;;;;;;;;10.35;61.57;99538.84;1087634;54;19947;-79
2023/01/14 12:28:48;;;;;;;;;;;;;;;10.32;61.32;99521.31;1087836;54;19958;-78
2023/01/14 12:29:49;;;;;;;;;;;;;;;10.27;61.54;99526.28;1087756;54;19969;-80
2023/01/14 12:30:54;;;;;;;;;;;;;;;10.34;61.77;99521.16;1090062;47;20500;-80
2023/01/14 12:31:59;;;;;;;;;;;;;;;10.37;61.46;99510.16;1087756;54;19946;-78
2023/01/14 12:33:05;;;;;;;;;;;;;;;10.36;61.49;99503.97;1087737;54;20020;-80
2023/01/14 12:34:12;;;;;;;;;;;;;;;10.36;61.74;99492.44;1087678;54;19935;-79
2023/01/14 12:35:16;;;;;;;;;;;;;;;10.35;61.37;99486.28;1087465;54;20002;-80
2023/01/14 12:36:19;;;;;;;;;;;;;;;10.37;61.47;99481.66;1086872;54;19972;-78
2023/01/14 12:37:26;;;;;;;;;;;;;;;10.39;61.29;99482.31;1087053;54;20508;-79
2023/01/14 12:46:22;;;;;;;;;;;;;;;10.21;61.40;99468.13;1087310;54;19954;-80
2023/01/14 12:47:26;;;;;;;;;;;;;;;10.26;61.74;99465.84;1087136;54;19951;-78
2023/01/14 12:48:29;;;;;;;;;;;;;;;10.32;61.55;99454.50;1087141;54;19950;-78
2023/01/14 12:49:34;;;;;;;;;;;;;;;10.27;61.66;99456.84;1087116;54;19947;-78
2023/01/14 12:50:39;;;;;;;;;;;;;;;10.36;61.26;99455.03;1086525;54;19947;-78
2023/01/14 12:51:41;;;;;;;;;;;;;;;10.38;61.18;99453.06;1087085;54;19950;-77
2023/01/14 12:52:49;;;;;;;;;;;;;;;10.37;61.36;99444.25;1087484;54;19953;-77
2023/01/14 12:53:54;;;;;;;;;;;;;;;10.40;61.23;99446.56;1087198;54;19947;-77
2023/01/14 12:54:59;;;;;;;;;;;;;;;10.42;61.35;99451.78;1087146;54;19962;-78
2023/01/14 12:56:04;;;;;;;;;;;;;;;10.48;60.94;99444.97;1087040;54;19947;-78
2023/01/14 12:57:06;;;;;;;;;;;;;;;10.43;61.33;99456.13;1086990;54;19962;-78
2023/01/14 12:58:17;;;;;;;;;;;;;;;10.46;61.14;99453.13;1087479;54;19950;-78
2023/01/14 12:59:24;;;;;;;;;;;;;;;10.44;61.03;99449.75;1088128;54;19953;-78
2023/01/14 13:00:27;;;;;;;;;;;;;;;10.48;61.18;99452.97;1088021;46;20001;-78
2023/01/14 13:01:35;;;;;;;;;;;;;;;10.38;61.17;99443.25;1087817;54;19951;-77
2023/01/14 13:02:38;;;;;;;;;;;;;;;10.36;61.19;99439.84;1087616;54;19943;-79
2023/01/14 13:03:48;;;;;;;;;;;;;;;10.38;61.19;99443.25;1087896;39;20552;-77
2023/01/14 13:04:50;;;;;;;;;;;;;;;10.42;61.24;99436.56;1087551;54;19965;-79
2023/01/14 13:05:55;;;;;;;;;;;;;;;10.30;61.27;99437.78;1087189;54;19950;-78
2023/01/14 13:07:01;;;;;;;;;;;;;;;10.29;61.50;99433.47;1087217;54;20002;-78
2023/01/14 13:08:07;;;;;;;;;;;;;;;10.31;61.22;99431.47;1087332;54;19950;-78
2023/01/14 13:09:18;;;;;;;;;;;;;;;10.39;61.26;99420.84;1087240;54;19946;-79
2023/01/14 13:10:30;;;;;;;;;;;;;;;10.39;61.15;99412.84;1087740;46;19946;-79
2023/01/14 13:11:42;;;;;;;;;;;;;;;10.38;61.00;99419.19;1087244;54;20470;-79
2023/01/14 13:12:50;;;;;;;;;;;;;;;10.38;61.07;99415.66;1087397;54;19942;-77
2023/01/14 13:13:51;;;;;;;;;;;;;;;10.42;60.72;99404.50;1086761;54;19947;-77
2023/01/14 13:14:56;;;;;;;;;;;;;;;10.40;60.98;99409.16;1086719;54;19969;-78
2023/01/14 13:16:02;;;;;;;;;;;;;;;10.43;60.74;99403.50;1087483;54;19943;-79
2023/01/14 13:17:05;;;;;;;;;;;;;;;10.47;60.56;99398.69;1087782;54;19950;-78
2023/01/14 13:18:28;;;;;;;;;;;;;;;10.39;60.71;99390.63;1087583;54;20012;-79
2023/01/14 13:19:35;;;;;;;;;;;;;;;10.45;60.87;99389.97;1087371;54;19946;-78
2023/01/14 13:20:53;;;;;;;;;;;;;;;10.51;60.45;99389.38;1087696;54;19927;-79
2023/01/14 13:21:55;;;;;;;;;;;;;;;10.55;60.26;99385.34;1087614;54;19923;-79
2023/01/14 13:23:00;;;;;;;;;;;;;;;10.58;60.25;99384.22;1087635;54;19942;-78
2023/01/14 13:24:03;;;;;;;;;;;;;;;10.49;60.54;99385.16;1087715;54;19970;-79
2023/01/14 13:25:19;;;;;;;;;;;;;;;10.50;60.51;99378.81;1088175;54;19942;-78
2023/01/14 13:26:41;;;;;;;;;;;;;;;10.51;60.64;99378.69;1088245;46;19926;-78
2023/01/14 13:27:46;;;;;;;;;;;;;;;10.52;60.42;99374.16;1088245;54;19946;-81
2023/01/14 13:29:02;;;;;;;;;;;;;;;10.54;60.43;99377.50;1090437;46;19942;-78
2023/01/14 13:30:21;;;;;;;;;;;;;;;10.54;60.47;99366.81;1089293;46;19957;-78
2023/01/14 13:31:37;;;;;;;;;;;;;;;10.52;60.62;99358.13;1088166;54;19923;-78
2023/01/14 13:32:52;;;;;;;;;;;;;;;10.56;60.45;99348.78;1087293;54;19967;-77
2023/01/14 13:34:17;;;;;;;;;;;;;;;10.49;60.48;99342.41;1087394;54;19947;-79
2023/01/14 13:35:23;;;;;;;;;;;;;;;10.47;60.46;99347.09;1087193;54;20425;-78
2023/01/14 13:36:24;;;;;;;;;;;;;;;10.44;60.12;99351.75;1086680;54;19951;-79
2023/01/14 13:37:29;;;;;;;;;;;;;;;10.44;60.33;99361.59;1087010;54;19943;-77
2023/01/14 13:38:31;;;;;;;;;;;;;;;10.48;60.05;99354.09;1087189;54;19927;-78
2023/01/14 13:39:35;;;;;;;;;;;;;;;10.52;60.31;99367.00;1087185;54;19946;-79
2023/01/14 13:40:39;;;;;;;;;;;;;;;10.49;60.37;99353.94;1087739;54;19934;-79
2023/01/14 13:41:45;;;;;;;;;;;;;;;10.45;60.87;99352.56;1087692;54;19958;-79
2023/01/14 13:42:57;;;;;;;;;;;;;;;10.45;60.56;99340.06;1087550;54;19947;-79
2023/01/14 13:43:59;;;;;;;;;;;;;;;10.52;60.97;99326.03;1087493;54;20428;-78
2023/01/14 13:45:05;;;;;;;;;;;;;;;10.50;61.56;99338.72;1087491;54;19942;-79
2023/01/14 13:46:13;;;;;;;;;;;;;;;10.44;63.53;99329.53;1087884;54;20014;-78
2023/01/14 13:47:22;;;;;;;;;;;;;;;10.44;62.42;99326.84;1087900;54;20004;-78
2023/01/14 13:48:29;;;;;;;;;;;;;;;10.40;63.27;99323.66;1087589;54;19938;-78
2023/01/14 13:49:33;;;;;;;;;;;;;;;10.36;63.11;99321.44;1087744;54;19957;-78
2023/01/14 13:50:37;;;;;;;;;;;;;;;10.33;62.87;99327.94;1086742;54;19951;-78
2023/01/14 13:51:40;;;;;;;;;;;;;;;10.40;62.68;99328.19;1087145;54;19975;-79
2023/01/14 13:52:50;;;;;;;;;;;;;;;10.41;62.64;99320.00;1086909;54;19946;-82
2023/01/14 13:53:55;;;;;;;;;;;;;;;10.31;63.26;99324.59;1086764;54;19938;-77
2023/01/14 13:55:01;;;;;;;;;;;;;;;10.30;62.82;99326.44;1087274;54;19942;-78
2023/01/14 13:56:05;;;;;;;;;;;;;;;10.29;63.01;99321.28;1087238;54;19975;-79
2023/01/14 13:57:12;;;;;;;;;;;;;;;10.27;62.82;99323.25;1090870;39;20355;-79
2023/01/14 13:58:21;;;;;;;;;;;;;;;10.26;63.25;99321.59;1087376;54;19963;-78
2023/01/14 13:59:24;;;;;;;;;;;;;;;10.22;63.64;99318.41;1087693;54;19922;-79
2023/01/14 14:00:37;;;;;;;;;;;;;;;10.29;63.11;99324.78;1087793;54;19951;-79
2023/01/14 14:01:48;;;;;;;;;;;;;;;10.32;62.88;99314.75;1087882;54;19943;-78
2023/01/14 14:02:52;;;;;;;;;;;;;;;10.33;63.34;99321.78;1087205;54;19958;-78
2023/01/14 14:03:54;;;;;;;;;;;;;;;10.29;63.00;99326.63;1086889;54;19938;-78
2023/01/14 14:05:04;;;;;;;;;;;;;;;10.22;63.46;99318.41;1087595;54;19949;-78
2023/01/14 14:06:30;;;;;;;;;;;;;;;10.19;63.41;99316.03;1087675;54;19950;-78
2023/01/14 14:07:48;;;;;;;;;;;;;;;10.15;63.49;99312.84;1087944;54;19998;-79
2023/01/14 14:08:53;;;;;;;;;;;;;;;10.21;63.55;99308.72;1087592;54;19947;-82
2023/01/14 14:10:00;;;;;;;;;;;;;;;10.23;63.26;99305.88;1088219;46;20761;-79
2023/01/14 14:11:03;;;;;;;;;;;;;;;10.21;63.50;99300.69;1088972;39;20400;-79
2023/01/14 14:14:55;;;;;;;;;;;;;;;10.22;63.28;99289.03;1087676;54;19950;-79
2023/01/14 14:15:57;;;;;;;;;;;;;;;10.25;62.95;99293.19;1087691;54;19927;-78
2023/01/14 14:17:02;;;;;;;;;;;;;;;10.28;63.00;99287.53;1087589;54;19942;-79
2023/01/14 14:18:04;;;;;;;;;;;;;;;10.23;63.25;99293.38;1087554;54;19946;-79
2023/01/14 14:19:17;;;;;;;;;;;;;;;10.18;63.15;99293.00;1087696;54;19976;-80
2023/01/14 14:20:19;;;;;;;;;;;;;;;10.25;63.16;99298.53;1087774;54;19995;-79
2023/01/14 14:21:25;;;;;;;;;;;;;;;10.26;63.66;99293.03;1087693;54;19953;-78
2023/01/14 14:22:34;;;;;;;;;;;;;;;10.21;63.85;99294.50;1087678;54;19951;-79
2023/01/14 14:23:41;;;;;;;;;;;;;;;10.07;64.18;99294.13;1087741;54;19954;-79
2023/01/14 14:24:47;;;;;;;;;;;;;;;10.07;64.76;99296.81;1089487;46;19942;-79
2023/01/14 14:25:49;;;;;;;;;;;;;;;10.11;64.93;99292.78;1087670;54;19950;-79
2023/01/14 14:26:54;;;;;;;;;;;;;;;10.08;64.76;99287.78;1087813;54;20457;-84
2023/01/14 14:27:58;;;;;;;;;;;;;;;10.15;64.44;99288.81;1087748;54;19942;-78
2023/01/14 14:29:04;;;;;;;;;;;;;;;10.06;64.82;99297.78;1087648;54;19967;-79
2023/01/14 14:30:15;;;;;;;;;;;;;;;10.09;64.63;99293.97;1087749;54;19950;-79
2023/01/14 14:31:22;;;;;;;;;;;;;;;9.96;64.54;99299.75;1087753;54;19927;-80
2023/01/14 14:32:29;;;;;;;;;;;;;;;10.02;64.31;99295.59;1087708;54;19926;-79
2023/01/14 14:33:33;;;;;;;;;;;;;;;9.89;64.96;99301.38;1087580;54;21145;-79
2023/01/14 14:34:41;;;;;;;;;;;;;;;9.99;64.83;99302.09;1087858;54;19958;-79
2023/01/14 14:35:43;;;;;;;;;;;;;;;10.06;64.82;99300.47;1087711;54;19957;-82
2023/01/14 14:40:29;;;;;;;;;;;;;;;10.00;65.57;99306.44;1087631;54;19957;-79
2023/01/14 14:45:18;;;;;;;;;;;;;;;9.89;65.97;99298.72;1087507;54;19947;-80
2023/01/14 14:46:50;;;;;;;;;;;;;;;9.74;66.16;99293.13;1087023;46;19946;-79
2023/01/14 14:50:12;;;;;;;;;;;;;;;9.83;66.14;99287.66;1086966;54;19942;-80
2023/01/14 14:53:45;;;;;;;;;;;;;;;9.87;66.44;99266.00;1086552;54;20002;-80
2023/01/14 14:55:16;;;;;;;;;;;;;;;9.78;66.77;99252.59;1086676;54;19978;-80
2023/01/14 14:56:24;;;;;;;;;;;;;;;9.75;67.08;99254.75;1086678;54;19942;-79
2023/01/14 14:57:29;;;;;;;;;;;;;;;9.75;66.72;99246.75;1086582;54;19942;-81
2023/01/14 15:00:45;;;;;;;;;;;;;;;;;;;;;
2023/01/14 15:02:31;;;;;;;;;;;;;;;;;;;;;
2023/01/14 15:05:48;;;;;;;;;;;;;;;9.74;66.43;99248.56;1087089;54;19970;-80
2023/01/14 15:07:20;;;;;;;;;;;;;;;9.70;66.83;99239.22;1086913;54;19943;-80
2023/01/14 15:10:35;;;;;;;;;;;;;;;9.77;66.77;99247.44;1088178;46;19977;-80
2023/01/14 15:12:03;;;;;;;;;;;;;;;9.78;66.64;99249.94;1087594;46;19968;-80
2023/01/14 15:13:36;;;;;;;;;;;;;;;9.78;66.70;99244.59;1086983;54;19976;-80
2023/01/14 15:15:11;;;;;;;;;;;;;;;9.74;66.83;99245.91;1087267;54;19939;-79
2023/01/14 15:16:48;;;;;;;;;;;;;;;9.76;66.75;99249.25;1087532;54;19993;-80
2023/01/14 15:18:15;;;;;;;;;;;;;;;9.79;66.97;99242.75;1086994;54;19951;-81
2023/01/14 15:19:56;;;;;;;;;;;;;;;9.74;67.09;99248.56;1087471;54;20085;-81
2023/01/14 15:22:53;;;;;;;;;;;;;;;9.68;67.26;99230.53;1087470;54;19955;-80
2023/01/14 15:24:10;;;;;;;;;;;;;;;9.71;67.53;99232.03;1088065;46;19951;-80
2023/01/14 15:25:32;;;;;;;;;;;;;;;9.64;68.33;99226.50;1087239;54;19951;-80
2023/01/14 15:26:57;;;;;;;;;;;;;;;9.63;68.09;99223.00;1087406;54;19956;-82
2023/01/14 15:37:00;;;;;;;;;;;;;;;9.55;69.04;99224.78;1087359;54;19966;-79
2023/01/14 15:42:04;;;;;;;;;;;;;;;9.51;68.93;99222.44;1087227;54;20601;-82
2023/01/14 15:45:26;;;;;;;;;;;;;;;9.57;68.66;99220.97;1087585;54;19943;-81
2023/01/14 15:47:03;;;;;;;;;;;;;;;9.54;68.92;99225.78;1088147;46;20021;-81
2023/01/14 15:50:16;;;;;;;;;;;;;;;9.55;68.28;99222.09;1087309;54;19951;-81
2023/01/14 15:51:47;;;;;;;;;;;;;;;9.57;68.04;99225.47;1087521;54;19923;-81
2023/01/14 15:54:28;;;;;;;;;;;;;;;9.46;67.70;99214.06;1087253;54;19990;-80
2023/01/14 15:56:07;;;;;;;;;;;;;;;;;;;;;
2023/01/14 15:57:59;;;;;;;;;;;;;;;9.57;67.07;99204.13;1087983;46;19957;-81
2023/01/14 16:00:56;;;;;;;;;;;;;;;9.69;66.13;99197.50;1087561;46;19986;-79
2023/01/14 16:02:14;;;;;;;;;;;;;;;9.64;66.71;99195.31;1089291;39;20369;-80
2023/01/14 16:03:52;;;;;;;;;;;;;;;9.66;66.43;99204.00;1087380;54;19957;-80
2023/01/14 16:05:39;;;;;;;;;;;;;;;9.71;65.98;99200.88;1087675;47;19927;-78
2023/01/14 16:06:50;;;;;;;;;;;;;;;9.71;65.83;99195.53;1088950;39;19995;-79
2023/01/14 16:10:06;;;;;;;;;;;;;;;9.78;65.25;99185.88;1087083;54;19961;-80
2023/01/14 16:11:10;;;;;;;;;;;;;;;9.75;64.94;99183.50;1087597;54;19943;-78
2023/01/14 16:12:15;;;;;;;;;;;;;;;9.78;64.52;99172.53;1087634;47;19943;-79
2023/01/14 16:13:19;;;;;;;;;;;;;;;9.76;64.57;99182.53;1087443;54;19934;-79
2023/01/14 16:14:26;;;;;;;;;;;;;;;9.81;64.52;99184.72;1087377;54;19950;-79
2023/01/14 16:15:29;;;;;;;;;;;;;;;9.82;64.20;99176.53;1089245;47;19950;-78
2023/01/14 16:16:33;;;;;;;;;;;;;;;9.81;63.65;99180.22;1087366;54;19954;-78
2023/01/14 16:17:37;;;;;;;;;;;;;;;9.78;63.47;99179.69;1087488;54;19946;-79
2023/01/14 16:18:38;;;;;;;;;;;;;;;9.82;62.99;99181.03;1087419;54;19934;-79
2023/01/14 16:19:42;;;;;;;;;;;;;;;9.84;62.92;99174.53;1087530;54;20010;-79
2023/01/14 16:20:43;;;;;;;;;;;;;;;9.91;62.46;99166.72;1087466;54;19942;-78
2023/01/14 16:21:47;;;;;;;;;;;;;;;9.92;62.62;99162.25;1087646;54;19927;-79
2023/01/14 16:22:48;;;;;;;;;;;;;;;9.95;62.80;99156.56;1087185;54;19954;-80
2023/01/14 16:23:51;;;;;;;;;;;;;;;9.98;62.85;99149.06;1087225;54;19962;-78
2023/01/14 16:24:52;;;;;;;;;;;;;;;9.95;61.96;99143.22;1087331;54;19943;-78
2023/01/14 16:26:02;;;;;;;;;;;;;;;9.90;61.83;99145.53;1087150;54;20019;-79
2023/01/14 16:27:21;;;;;;;;;;;;;;;9.96;62.21;99139.53;1087259;54;19946;-79
2023/01/14 16:28:27;;;;;;;;;;;;;;;9.93;62.03;99138.03;1087107;54;19935;-78
2023/01/14 16:29:31;;;;;;;;;;;;;;;9.95;61.91;99137.88;1087225;54;19949;-81
2023/01/14 16:30:35;;;;;;;;;;;;;;;9.95;62.02;99137.88;1087116;54;19934;-79
2023/01/14 16:31:36;;;;;;;;;;;;;;;9.96;61.32;99139.53;1087182;54;20031;-79
2023/01/14 16:32:40;;;;;;;;;;;;;;;10.01;61.64;99134.56;1087397;54;20042;-80
2023/01/14 16:33:43;;;;;;;;;;;;;;;10.00;61.30;99132.91;1087051;54;19939;-80
2023/01/14 16:34:46;;;;;;;;;;;;;;;10.01;61.31;99139.91;1087096;54;19958;-78
2023/01/14 16:37:39;;;;;;;;;;;;;;;10.03;60.61;99121.03;1086790;54;19950;-79
2023/01/14 16:38:57;;;;;;;;;;;;;;;10.05;60.87;99117.19;1087392;54;19949;-81
2023/01/14 16:40:06;;;;;;;;;;;;;;;10.07;60.19;99115.22;1087347;54;19942;-79
2023/01/14 16:41:24;;;;;;;;;;;;;;;10.08;60.01;99119.56;1087332;54;19938;-79
2023/01/14 16:42:30;;;;;;;;;;;;;;;10.09;59.83;99117.69;1087204;54;19947;-78
2023/01/14 16:43:42;;;;;;;;;;;;;;;10.05;59.33;99106.53;1087316;54;19964;-79
2023/01/14 16:44:56;;;;;;;;;;;;;;;10.09;59.19;99107.88;1086794;54;19958;-79
2023/01/14 16:46:19;;;;;;;;;;;;;;;10.12;58.64;99104.03;1086841;54;19939;-79
2023/01/14 16:47:55;;;;;;;;;;;;;;;10.14;58.94;99104.72;1087127;54;19971;-80
2023/01/14 16:49:27;;;;;;;;;;;;;;;10.09;58.68;99099.88;1086985;54;19966;-79
2023/01/14 16:53:44;;;;;;;;;;;;;;;10.09;59.08;99081.16;1087447;47;19946;-79
2023/01/14 16:55:03;;;;;;;;;;;;;;;10.14;58.93;99083.34;1086838;54;19947;-79
2023/01/14 16:57:26;;;;;;;;;;;;;;;10.15;58.92;99079.69;1086744;54;19958;-78
2023/01/14 16:58:35;;;;;;;;;;;;;;;10.12;58.90;99080.81;1086450;54;19951;-79
2023/01/14 16:59:45;;;;;;;;;;;;;;;10.10;58.44;99080.16;1086804;54;20234;-79
2023/01/14 17:01:12;;;;;;;;;;;;;;;10.19;58.31;99081.00;1086913;54;19927;-79
2023/01/14 17:02:37;;;;;;;;;;;;;;;10.14;58.74;99078.81;1086794;54;20527;-79
2023/01/14 17:03:55;;;;;;;;;;;;;;;10.19;58.76;99088.19;1086692;54;19939;-78
2023/01/14 17:05:07;;;;;;;;;;;;;;;10.18;58.48;99084.66;1086743;54;19962;-78
2023/01/14 17:06:24;;;;;;;;;;;;;;;10.15;58.90;99090.34;1086597;54;19939;-80
2023/01/14 17:10:42;;;;;;;;;;;;;;;10.20;58.86;99096.03;1086493;54;20414;-78
2023/01/14 17:13:03;;;;;;;;;;;;;;;10.20;58.71;99093.34;1086676;54;20546;-78
2023/01/14 17:14:06;;;;;;;;;;;;;;;10.17;58.71;99087.50;1086376;54;20002;-80
2023/01/14 17:15:12;;;;;;;;;;;;;;;10.18;59.29;99081.16;1086529;54;19950;-78
2023/01/14 17:16:16;;;;;;;;;;;;;;;10.17;59.22;99076.84;1087052;39;20430;-78
2023/01/14 17:17:17;;;;;;;;;;;;;;;10.19;59.42;99082.84;1086171;54;19962;-79
2023/01/14 17:18:20;;;;;;;;;;;;;;;10.20;59.67;99079.19;1086113;54;19927;-78
2023/01/14 17:19:21;;;;;;;;;;;;;;;10.13;59.53;99076.34;1085985;54;20059;-79
2023/01/14 17:20:27;;;;;;;;;;;;;;;10.11;59.82;99079.16;1086586;54;19949;-79
2023/01/14 17:21:28;;;;;;;;;;;;;;;10.12;60.18;99085.34;1086391;54;19974;-79
2023/01/14 17:22:31;;;;;;;;;;;;;;;10.03;61.03;99094.34;1086515;54;20096;-79
2023/01/14 17:23:35;;;;;;;;;;;;;;;10.05;60.51;99087.81;1088598;39;20385;-82
2023/01/14 17:24:36;;;;;;;;;;;;;;;10.02;61.13;99085.47;1087186;54;19951;-79
2023/01/14 17:25:41;;;;;;;;;;;;;;;9.99;61.92;99091.16;1087149;54;19951;-79